createdAt,value
2018-09-14T00:01:09.971Z,12.50
2018-09-14T00:03:38.012Z,12.48
2018-09-14T00:06:06.031Z,12.47
2018-09-14T00:08:34.084Z,12.44
2018-09-14T00:11:02.124Z,12.42
2018-09-14T00:13:30.148Z,12.40
2018-09-14T00:15:58.252Z,12.39
2018-09-14T00:18:26.284Z,12.36
2018-09-14T00:20:54.464Z,12.30
2018-09-14T00:23:22.521Z,12.28
2018-09-14T00:25:50.561Z,12.26
2018-09-14T00:28:18.589Z,12.24
2018-09-14T00:30:46.634Z,12.20
2018-09-14T00:33:14.702Z,12.18
2018-09-14T00:35:42.733Z,12.15
2018-09-14T00:38:10.786Z,12.11
2018-09-14T00:43:06.128Z,12.04
2018-09-14T00:45:34.173Z,12.00
2018-09-14T00:48:02.202Z,11.96
2018-09-14T00:50:30.294Z,11.92
2018-09-14T00:52:58.342Z,11.89
2018-09-14T00:55:26.391Z,11.85
2018-09-14T00:57:54.445Z,11.84
2018-09-14T01:00:22.530Z,11.82
2018-09-14T01:02:50.602Z,11.82
2018-09-14T01:05:18.668Z,11.81
2018-09-14T01:07:46.748Z,11.77
2018-09-14T01:10:14.816Z,11.71
2018-09-14T01:12:42.862Z,11.68
2018-09-14T01:15:10.921Z,11.65
2018-09-14T01:17:38.962Z,11.64
2018-09-14T01:20:07.069Z,11.63
2018-09-14T01:22:35.069Z,11.62
2018-09-14T01:25:03.125Z,11.59
2018-09-14T01:27:31.192Z,11.56
2018-09-14T01:29:59.289Z,11.54
2018-09-14T01:32:27.336Z,11.53
2018-09-14T01:34:55.372Z,11.50
2018-09-14T01:37:23.438Z,11.46
2018-09-14T01:39:51.501Z,11.43
2018-09-14T01:42:19.596Z,11.43
2018-09-14T01:44:47.661Z,11.42
2018-09-14T01:47:15.717Z,11.41
2018-09-14T01:49:43.783Z,11.34
2018-09-14T01:52:11.838Z,11.25
2018-09-14T01:54:39.904Z,11.21
2018-09-14T01:57:07.953Z,11.19
2018-09-14T01:59:36.014Z,11.16
2018-09-14T02:02:04.062Z,11.14
2018-09-14T02:04:32.111Z,11.10
2018-09-14T02:07:00.191Z,11.09
2018-09-14T02:09:28.260Z,11.04
2018-09-14T02:11:56.296Z,10.97
2018-09-14T02:14:24.355Z,10.98
2018-09-14T02:16:52.416Z,10.99
2018-09-14T02:19:20.483Z,10.98
2018-09-14T02:21:48.520Z,10.97
2018-09-14T02:24:16.560Z,10.96
2018-09-14T02:26:44.636Z,10.96
2018-09-14T02:29:12.704Z,10.95
2018-09-14T02:31:40.785Z,10.95
2018-09-14T02:34:08.859Z,10.94
2018-09-14T02:36:36.925Z,10.90
2018-09-14T02:39:06.981Z,10.86
2018-09-14T02:41:35.045Z,10.84
2018-09-14T02:44:03.095Z,10.83
2018-09-14T02:46:31.160Z,10.79
2018-09-14T02:48:59.204Z,10.76
2018-09-14T02:51:27.243Z,10.71
2018-09-14T02:53:55.320Z,10.68
2018-09-14T02:56:23.395Z,10.66
2018-09-14T02:58:51.449Z,10.62
2018-09-14T03:01:19.517Z,10.60
2018-09-14T03:03:47.577Z,10.60
2018-09-14T03:06:15.792Z,10.57
2018-09-14T03:08:43.865Z,10.54
2018-09-14T03:11:11.920Z,10.51
2018-09-14T03:13:40.010Z,10.50
2018-09-14T03:16:08.268Z,10.48
2018-09-14T03:18:36.339Z,10.47
2018-09-14T03:21:04.937Z,10.48
2018-09-14T03:23:32.972Z,10.48
2018-09-14T03:26:01.049Z,10.46
2018-09-14T03:28:29.088Z,10.44
2018-09-14T03:30:57.147Z,10.41
2018-09-14T03:33:25.204Z,10.38
2018-09-14T03:35:53.262Z,10.35
2018-09-14T03:38:21.334Z,10.35
2018-09-14T03:40:49.392Z,10.30
2018-09-14T03:43:17.440Z,10.30
2018-09-14T03:45:45.474Z,10.23
2018-09-14T03:48:13.590Z,10.17
2018-09-14T03:50:41.664Z,10.14
2018-09-14T03:53:09.717Z,10.14
2018-09-14T03:55:37.781Z,10.13
2018-09-14T03:58:05.833Z,10.13
2018-09-14T04:00:33.912Z,10.12
2018-09-14T04:03:01.956Z,10.10
2018-09-14T04:05:30.032Z,10.07
2018-09-14T04:07:58.163Z,10.01
2018-09-14T04:10:26.174Z,10.00
2018-09-14T04:12:54.212Z,9.99
2018-09-14T04:15:22.347Z,9.98
2018-09-14T04:17:50.389Z,9.97
2018-09-14T04:20:18.453Z,9.95
2018-09-14T04:22:46.502Z,9.93
2018-09-14T04:25:14.582Z,9.90
2018-09-14T04:27:42.636Z,9.88
2018-09-14T04:30:10.708Z,9.87
2018-09-14T04:32:38.776Z,9.85
2018-09-14T04:35:06.899Z,9.82
2018-09-14T04:37:39.877Z,9.80
2018-09-14T04:40:07.896Z,9.79
2018-09-14T04:42:35.921Z,9.79
2018-09-14T04:45:05.065Z,9.77
2018-09-14T04:47:33.086Z,9.72
2018-09-14T04:50:01.165Z,9.70
2018-09-14T04:52:29.192Z,9.69
2018-09-14T04:54:57.248Z,9.66
2018-09-14T04:57:25.437Z,9.63
2018-09-14T04:59:53.361Z,9.61
2018-09-14T05:02:21.437Z,9.60
2018-09-14T05:04:49.476Z,9.59
2018-09-14T05:07:17.556Z,9.59
2018-09-14T05:09:45.613Z,9.57
2018-09-14T05:12:13.708Z,9.56
2018-09-14T05:14:41.760Z,9.51
2018-09-14T05:17:09.804Z,9.51
2018-09-14T05:19:37.848Z,9.52
2018-09-14T05:22:05.965Z,9.53
2018-09-14T05:24:34.056Z,9.57
2018-09-14T05:27:02.373Z,9.59
2018-09-14T05:29:30.421Z,9.56
2018-09-14T05:31:58.460Z,9.57
2018-09-14T05:34:26.530Z,9.56
2018-09-14T05:36:54.581Z,9.58
2018-09-14T05:39:22.616Z,9.60
2018-09-14T05:41:50.632Z,9.59
2018-09-14T05:44:18.661Z,9.58
2018-09-14T05:46:46.714Z,9.58
2018-09-14T05:49:14.744Z,9.57
2018-09-14T05:51:42.774Z,9.56
2018-09-14T05:54:10.823Z,9.54
2018-09-14T05:56:38.909Z,9.56
2018-09-14T05:59:07.269Z,9.57
2018-09-14T06:01:35.281Z,9.58
2018-09-14T06:04:03.369Z,9.61
2018-09-14T06:06:31.447Z,9.64
2018-09-14T06:08:59.413Z,9.69
2018-09-14T06:11:27.433Z,9.73
2018-09-14T06:13:55.464Z,9.76
2018-09-14T06:16:23.501Z,9.81
2018-09-14T06:18:51.529Z,9.84
2018-09-14T06:21:19.549Z,9.91
2018-09-14T06:23:47.576Z,9.97
2018-09-14T06:26:15.614Z,10.04
2018-09-14T06:28:43.652Z,10.11
2018-09-14T06:31:11.696Z,10.17
2018-09-14T06:33:39.947Z,10.24
2018-09-14T06:36:08.001Z,10.30
2018-09-14T06:38:36.224Z,10.38
2018-09-14T06:41:05.278Z,10.45
2018-09-14T06:43:33.413Z,10.53
2018-09-14T06:46:01.542Z,10.61
2018-09-14T06:48:29.606Z,10.70
2018-09-14T06:50:57.740Z,10.80
2018-09-14T06:53:26.137Z,10.89
2018-09-14T06:55:54.186Z,10.98
2018-09-14T06:58:22.482Z,11.09
2018-09-14T07:00:50.537Z,11.19
2018-09-14T07:03:18.569Z,11.30
2018-09-14T07:05:46.604Z,11.40
2018-09-14T07:08:14.677Z,11.52
2018-09-14T07:10:42.745Z,11.61
2018-09-14T07:13:17.564Z,11.68
2018-09-14T07:15:45.540Z,11.82
2018-09-14T07:18:13.648Z,11.92
2018-09-14T07:20:41.971Z,12.03
2018-09-14T07:23:10.023Z,12.15
2018-09-14T07:25:38.124Z,12.27
2018-09-14T07:28:06.168Z,12.40
2018-09-14T07:30:34.248Z,12.54
2018-09-14T07:33:02.324Z,12.69
2018-09-14T07:35:30.380Z,12.87
2018-09-14T07:37:58.452Z,13.04
2018-09-14T07:40:26.517Z,13.24
2018-09-14T07:42:54.577Z,13.49
2018-09-14T07:45:22.637Z,13.74
2018-09-14T07:47:50.691Z,13.99
2018-09-14T07:50:18.743Z,14.24
2018-09-14T07:52:46.780Z,14.56
2018-09-14T07:55:14.827Z,14.87
2018-09-14T07:57:42.890Z,15.18
2018-09-14T08:00:10.954Z,15.53
2018-09-14T08:02:39.004Z,15.78
2018-09-14T08:05:07.039Z,15.97
2018-09-14T08:07:35.070Z,16.14
2018-09-14T08:10:03.143Z,16.32
2018-09-14T08:12:31.208Z,16.47
2018-09-14T08:14:59.267Z,16.66
2018-09-14T08:17:27.285Z,16.81
2018-09-14T08:19:55.380Z,16.96
2018-09-14T08:22:23.448Z,17.17
2018-09-14T08:24:51.500Z,17.31
2018-09-14T08:27:19.635Z,17.42
2018-09-14T08:29:47.861Z,17.61
2018-09-14T08:32:15.968Z,17.70
2018-09-14T08:34:44.053Z,17.82
2018-09-14T08:37:12.085Z,18.04
2018-09-14T08:39:40.118Z,18.26
2018-09-14T08:42:08.167Z,18.42
2018-09-14T08:44:36.188Z,18.57
2018-09-14T08:47:04.932Z,18.72
2018-09-14T08:49:32.960Z,18.93
2018-09-14T08:52:00.984Z,19.12
2018-09-14T08:57:35.762Z,19.56
2018-09-14T09:00:07.909Z,19.72
2018-09-14T09:02:36.120Z,19.88
2018-09-14T09:05:05.222Z,20.03
2018-09-14T09:07:33.817Z,20.12
2018-09-14T09:10:02.261Z,20.18
2018-09-14T09:12:30.576Z,20.34
2018-09-14T09:14:58.797Z,20.56
2018-09-14T09:17:27.696Z,20.83
2018-09-14T09:19:56.156Z,20.98
2018-09-14T09:22:25.107Z,21.02
2018-09-14T09:24:54.159Z,21.12
2018-09-14T09:27:22.426Z,21.29
2018-09-14T09:29:52.125Z,21.40
2018-09-14T09:32:21.101Z,21.58
2018-09-14T09:34:49.311Z,21.75
2018-09-14T09:37:17.534Z,21.91
2018-09-14T09:39:45.743Z,22.08
2018-09-14T09:42:13.999Z,22.18
2018-09-14T09:44:42.998Z,22.10
2018-09-14T09:47:12.093Z,22.09
2018-09-14T09:49:40.456Z,22.26
2018-09-14T09:52:08.718Z,22.34
2018-09-14T09:54:37.722Z,22.43
2018-09-14T09:57:06.764Z,22.45
2018-09-14T09:59:35.060Z,22.41
2018-09-14T10:02:08.901Z,22.47
2018-09-14T10:04:44.109Z,22.47
2018-09-14T10:07:12.221Z,22.59
2018-09-14T10:09:40.261Z,21.93
2018-09-14T10:12:08.370Z,22.20
2018-09-14T10:14:36.440Z,22.30
2018-09-14T10:17:04.972Z,22.27
2018-09-14T10:19:33.036Z,22.48
2018-09-14T10:22:01.250Z,22.61
2018-09-14T10:24:29.284Z,22.59
2018-09-14T10:26:57.302Z,22.61
2018-09-14T10:29:25.457Z,22.62
2018-09-14T10:31:53.639Z,22.70
2018-09-14T10:34:21.660Z,22.93
2018-09-14T10:36:49.742Z,23.10
2018-09-14T10:39:19.450Z,23.19
2018-09-14T10:41:47.493Z,23.18
2018-09-14T10:44:15.570Z,23.16
2018-09-14T10:46:43.864Z,23.15
2018-09-14T10:49:11.908Z,23.05
2018-09-14T10:51:39.972Z,22.99
2018-09-14T10:54:08.669Z,22.93
2018-09-14T10:56:36.673Z,23.04
2018-09-14T10:59:05.684Z,23.21
2018-09-14T11:03:59.513Z,23.45
2018-09-14T11:06:27.772Z,23.62
2018-09-14T11:08:55.852Z,23.79
2018-09-14T11:11:23.935Z,24.03
2018-09-14T11:13:51.992Z,24.12
2018-09-14T11:16:20.029Z,24.16
2018-09-14T11:18:48.178Z,24.16
2018-09-14T11:21:16.191Z,24.30
2018-09-14T11:23:44.266Z,24.20
2018-09-14T11:26:12.359Z,24.17
2018-09-14T11:28:40.417Z,24.26
2018-09-14T11:31:08.491Z,24.39
2018-09-14T11:33:36.552Z,24.21
2018-09-14T11:36:04.693Z,24.02
2018-09-14T11:38:32.919Z,24.02
2018-09-14T11:41:00.823Z,24.23
2018-09-14T11:43:28.878Z,24.50
2018-09-14T11:45:57.105Z,24.71
2018-09-14T11:48:25.133Z,24.82
2018-09-14T11:50:53.426Z,24.69
2018-09-14T11:53:22.490Z,24.63
2018-09-14T11:55:50.525Z,24.61
2018-09-14T11:58:18.653Z,24.49
2018-09-14T12:00:47.388Z,24.50
2018-09-14T12:03:15.473Z,24.52
2018-09-14T12:05:43.650Z,24.60
2018-09-14T12:08:11.705Z,24.59
2018-09-14T12:10:39.742Z,24.71
2018-09-14T12:13:07.794Z,24.82
2018-09-14T12:15:35.912Z,24.81
2018-09-14T12:18:03.977Z,24.88
2018-09-14T12:20:32.040Z,24.71
2018-09-14T12:25:53.063Z,24.76
2018-09-14T12:28:21.210Z,24.80
2018-09-14T12:30:55.973Z,24.82
2018-09-14T12:33:24.014Z,24.84
2018-09-14T12:35:52.082Z,25.07
2018-09-14T12:38:20.205Z,25.00
2018-09-14T12:40:48.277Z,24.72
2018-09-14T12:43:16.321Z,24.68
2018-09-14T12:45:44.371Z,24.91
2018-09-14T12:48:12.465Z,24.94
2018-09-14T12:50:40.561Z,24.88
2018-09-14T12:53:08.635Z,24.90
2018-09-14T12:55:36.666Z,25.09
2018-09-14T12:58:04.725Z,25.31
2018-09-14T13:00:33.061Z,25.41
2018-09-14T13:03:01.134Z,25.45
2018-09-14T13:05:29.408Z,25.25
2018-09-14T13:07:57.484Z,25.18
2018-09-14T13:10:25.535Z,25.16
2018-09-14T13:12:53.589Z,25.17
2018-09-14T13:15:21.631Z,25.11
2018-09-14T13:17:49.718Z,25.03
2018-09-14T13:20:39.199Z,24.79
2018-09-14T13:23:07.233Z,24.76
2018-09-14T13:25:35.274Z,24.89
2018-09-14T13:28:03.556Z,24.82
2018-09-14T13:30:31.844Z,24.78
2018-09-14T13:32:59.890Z,24.75
2018-09-14T13:35:27.965Z,24.67
2018-09-14T13:37:56.010Z,24.64
2018-09-14T13:40:24.676Z,24.70
2018-09-14T13:42:52.772Z,24.81
2018-09-14T13:45:20.812Z,24.85
2018-09-14T13:47:48.884Z,24.78
2018-09-14T13:50:17.004Z,24.49
2018-09-14T13:52:45.106Z,24.36
2018-09-14T13:55:13.131Z,24.44
2018-09-14T13:57:41.223Z,24.47
2018-09-14T14:00:09.293Z,24.36
2018-09-14T14:02:37.360Z,24.23
2018-09-14T14:05:05.417Z,24.18
2018-09-14T14:07:33.504Z,24.15
2018-09-14T14:10:01.536Z,24.13
2018-09-14T14:12:29.621Z,24.08
2018-09-14T14:14:57.693Z,24.04
2018-09-14T14:17:25.866Z,24.09
2018-09-14T14:19:53.839Z,24.16
2018-09-14T14:22:21.937Z,24.15
2018-09-14T14:24:49.966Z,24.10
2018-09-14T14:27:18.036Z,23.99
2018-09-14T14:29:46.113Z,23.85
2018-09-14T14:32:14.165Z,23.77
2018-09-14T14:34:42.232Z,23.62
2018-09-14T14:37:10.616Z,23.52
2018-09-14T14:39:38.718Z,23.41
2018-09-14T14:42:06.779Z,23.45
2018-09-14T14:44:34.865Z,23.41
2018-09-14T14:47:02.949Z,23.36
2018-09-14T14:49:31.176Z,23.35
2018-09-14T14:51:59.242Z,23.18
2018-09-14T14:54:27.254Z,23.16
2018-09-14T14:56:55.311Z,23.16
2018-09-14T14:59:23.372Z,23.07
2018-09-14T15:01:51.419Z,23.00
2018-09-14T15:04:19.755Z,22.91
2018-09-14T15:06:47.993Z,22.89
2018-09-14T15:09:16.633Z,22.78
2018-09-14T15:11:44.689Z,22.72
2018-09-14T15:14:12.732Z,22.70
2018-09-14T15:16:40.821Z,22.66
2018-09-14T15:19:08.935Z,22.71
2018-09-14T15:21:36.989Z,22.83
2018-09-14T15:24:05.029Z,22.76
2018-09-14T15:26:33.135Z,22.65
2018-09-14T15:29:01.174Z,22.57
2018-09-14T15:31:37.593Z,22.51
2018-09-14T15:34:05.836Z,22.40
2018-09-14T15:36:34.097Z,22.40
2018-09-14T15:39:02.161Z,22.28
2018-09-14T15:41:30.256Z,22.17
2018-09-14T15:43:58.403Z,22.20
2018-09-14T15:46:26.508Z,22.19
2018-09-14T15:48:54.847Z,22.17
2018-09-14T15:51:22.909Z,22.21
2018-09-14T15:53:50.973Z,22.25
2018-09-14T15:56:19.962Z,22.20
2018-09-14T15:58:48.052Z,22.12
2018-09-14T16:01:16.132Z,22.08
2018-09-14T16:03:44.280Z,21.95
2018-09-14T16:06:12.603Z,21.87
2018-09-14T16:08:40.789Z,21.66
2018-09-14T16:11:08.907Z,21.51
2018-09-14T16:13:36.951Z,21.42
2018-09-14T16:16:05.061Z,21.27
2018-09-14T16:18:33.138Z,21.25
2018-09-14T16:21:01.181Z,21.25
2018-09-14T16:23:29.246Z,21.30
2018-09-14T16:25:57.277Z,21.34
2018-09-14T16:28:25.377Z,21.34
2018-09-14T16:30:53.421Z,21.28
2018-09-14T16:33:21.493Z,21.25
2018-09-14T16:35:49.598Z,21.26
2018-09-14T16:38:17.631Z,21.18
2018-09-14T16:40:45.923Z,21.07
2018-09-14T16:43:13.979Z,20.99
2018-09-14T16:45:42.008Z,20.97
2018-09-14T16:48:10.092Z,20.93
2018-09-14T16:50:38.120Z,20.90
2018-09-14T16:53:06.193Z,20.85
2018-09-14T16:55:34.393Z,20.81
2018-09-14T16:58:02.431Z,20.80
2018-09-14T17:00:30.586Z,20.75
2018-09-14T17:02:58.640Z,20.62
2018-09-14T17:05:26.699Z,20.56
2018-09-14T17:07:54.753Z,20.54
2018-09-14T17:10:22.821Z,20.46
2018-09-14T17:12:50.916Z,20.37
2018-09-14T17:15:18.992Z,20.33
2018-09-14T17:17:47.084Z,20.31
2018-09-14T17:20:15.144Z,20.28
2018-09-14T17:22:43.196Z,20.26
2018-09-14T17:25:11.270Z,20.21
2018-09-14T17:27:39.317Z,20.14
2018-09-14T17:30:07.365Z,20.07
2018-09-14T17:32:35.689Z,20.08
2018-09-14T17:35:03.759Z,19.95
2018-09-14T17:37:31.833Z,19.83
2018-09-14T17:39:59.908Z,19.80
2018-09-14T17:42:27.948Z,19.69
2018-09-14T17:44:56.015Z,19.66
2018-09-14T17:47:24.285Z,19.65
2018-09-14T17:49:52.402Z,19.62
2018-09-14T17:52:20.504Z,19.54
2018-09-14T17:54:48.669Z,19.51
2018-09-14T17:57:16.751Z,19.47
2018-09-14T17:59:44.797Z,19.51
2018-09-14T18:02:13.089Z,19.48
2018-09-14T18:04:41.208Z,19.46
2018-09-14T18:07:22.552Z,19.43
2018-09-14T18:09:50.618Z,19.41
2018-09-14T18:12:18.683Z,19.36
2018-09-14T18:14:46.743Z,19.33
2018-09-14T18:17:14.856Z,19.32
2018-09-14T18:19:42.903Z,19.35
2018-09-14T18:22:12.014Z,19.33
2018-09-14T18:24:40.052Z,19.29
2018-09-14T18:27:08.112Z,19.28
2018-09-14T18:29:36.176Z,19.27
2018-09-14T18:32:04.840Z,19.27
2018-09-14T18:34:32.898Z,19.24
2018-09-14T18:37:00.988Z,19.20
2018-09-14T18:39:29.046Z,19.14
2018-09-14T18:41:57.740Z,19.11
2018-09-14T18:44:25.789Z,19.06
2018-09-14T18:46:54.065Z,19.06
2018-09-14T18:49:22.105Z,19.07
2018-09-14T18:51:50.431Z,19.07
2018-09-14T18:54:18.551Z,19.03
2018-09-14T18:56:46.516Z,18.99
2018-09-14T18:59:15.339Z,18.90
2018-09-14T19:01:46.775Z,18.90
2018-09-14T19:04:15.851Z,18.87
2018-09-14T19:06:43.909Z,18.83
2018-09-14T19:09:12.628Z,18.80
2018-09-14T19:11:40.813Z,18.79
2018-09-14T19:14:09.148Z,18.79
2018-09-14T19:16:37.312Z,18.73
2018-09-14T19:19:05.402Z,18.70
2018-09-14T19:21:34.462Z,18.70
2018-09-14T19:24:02.500Z,18.68
2018-09-14T19:26:30.541Z,18.66
2018-09-14T19:28:58.581Z,18.65
2018-09-14T19:31:26.616Z,18.64
2018-09-14T19:33:54.682Z,18.63
2018-09-14T19:36:22.717Z,18.65
2018-09-14T19:38:50.751Z,18.68
2018-09-14T19:41:18.784Z,18.68
2018-09-14T19:43:46.846Z,18.63
2018-09-14T19:46:14.871Z,18.55
2018-09-14T19:48:42.948Z,18.47
2018-09-14T19:51:10.997Z,18.36
2018-09-14T19:53:39.020Z,18.31
2018-09-14T19:56:07.073Z,18.21
2018-09-14T19:58:35.104Z,18.22
2018-09-14T20:01:03.161Z,18.21
2018-09-14T20:03:31.225Z,18.18
2018-09-14T20:05:59.285Z,18.15
2018-09-14T20:08:27.272Z,18.10
2018-09-14T20:10:55.322Z,18.11
2018-09-14T20:13:23.345Z,18.10
2018-09-14T20:15:51.393Z,18.02
2018-09-14T20:18:19.460Z,17.97
2018-09-14T20:20:47.525Z,17.97
2018-09-14T20:23:15.583Z,17.99
2018-09-14T20:25:43.724Z,18.01
2018-09-14T20:28:11.776Z,18.00
2018-09-14T20:30:39.838Z,17.99
2018-09-14T20:33:07.895Z,17.96
2018-09-14T20:35:35.928Z,17.90
2018-09-14T20:38:04.544Z,17.86
2018-09-14T20:40:32.597Z,17.80
2018-09-14T20:43:00.645Z,17.78
2018-09-14T20:45:28.684Z,17.77
2018-09-14T20:47:56.984Z,17.69
2018-09-14T20:50:25.088Z,17.63
2018-09-14T20:52:53.129Z,17.52
2018-09-14T20:55:21.184Z,17.49
2018-09-14T20:57:49.236Z,17.41
2018-09-14T21:00:18.021Z,17.31
2018-09-14T21:02:46.641Z,17.25
2018-09-14T21:05:14.695Z,17.22
2018-09-14T21:07:42.753Z,17.15
2018-09-14T21:10:10.916Z,17.11
2018-09-14T21:12:38.945Z,17.05
2018-09-14T21:15:07.168Z,17.02
2018-09-14T21:17:35.234Z,16.97
2018-09-14T21:20:03.315Z,16.96
2018-09-14T21:22:31.445Z,16.95
2018-09-14T21:24:59.450Z,16.91
2018-09-14T21:27:27.501Z,16.88
2018-09-14T21:29:55.594Z,16.87
2018-09-14T21:32:23.640Z,16.82
2018-09-14T21:34:51.977Z,16.83
2018-09-14T21:37:20.025Z,16.77
2018-09-14T21:39:48.100Z,16.73
2018-09-14T21:42:16.165Z,16.72
2018-09-14T21:44:44.253Z,16.74
2018-09-14T21:47:13.808Z,16.75
2018-09-14T21:49:41.864Z,16.75
2018-09-14T21:52:09.930Z,16.74
2018-09-14T21:54:38.341Z,16.71
2018-09-14T21:57:06.509Z,16.71
2018-09-14T21:59:34.553Z,16.71
2018-09-14T22:02:02.624Z,16.68
2018-09-14T22:04:30.664Z,16.67
2018-09-14T22:06:58.784Z,16.66
2018-09-14T22:09:26.834Z,16.67
2018-09-14T22:11:54.872Z,16.61
2018-09-14T22:14:23.147Z,16.48
2018-09-14T22:16:51.216Z,16.37
2018-09-14T22:19:19.254Z,16.36
2018-09-14T22:21:47.355Z,16.35
2018-09-14T22:24:15.334Z,16.27
2018-09-14T22:26:43.389Z,16.22
2018-09-14T22:29:11.425Z,16.19
2018-09-14T22:31:39.481Z,16.17
2018-09-14T22:34:07.569Z,16.11
2018-09-14T22:36:54.809Z,16.07
2018-09-14T22:39:23.029Z,16.03
2018-09-14T22:41:52.583Z,16.04
2018-09-14T22:44:20.611Z,16.04
2018-09-14T22:46:48.844Z,16.00
2018-09-14T22:49:16.875Z,15.99
2018-09-14T22:51:44.943Z,16.00
2018-09-14T22:54:12.997Z,15.96
2018-09-14T22:56:41.057Z,15.95
2018-09-14T22:59:09.340Z,15.99
2018-09-14T23:01:37.407Z,16.00
2018-09-14T23:04:05.449Z,15.99
2018-09-14T23:06:33.500Z,16.00
2018-09-14T23:09:01.538Z,16.00
2018-09-14T23:11:29.596Z,16.00
2018-09-14T23:13:57.631Z,15.99
2018-09-14T23:16:25.672Z,15.98
2018-09-14T23:18:53.719Z,15.99
2018-09-14T23:21:21.878Z,15.98
2018-09-14T23:23:49.919Z,15.97
2018-09-14T23:26:20.350Z,15.91
2018-09-14T23:28:48.529Z,15.84
2018-09-14T23:31:16.747Z,15.82
2018-09-14T23:33:44.797Z,15.77
2018-09-14T23:36:12.934Z,15.73
2018-09-14T23:38:41.044Z,15.74
2018-09-14T23:41:09.174Z,15.71
2018-09-14T23:43:37.378Z,15.65
2018-09-14T23:46:05.461Z,15.62
2018-09-14T23:48:33.507Z,15.62
2018-09-14T23:51:02.108Z,15.62
2018-09-14T23:53:30.216Z,15.58
2018-09-14T23:55:58.271Z,15.55
2018-09-14T23:58:26.345Z,15.53
